Time;durP1;ratioP1;P1;durP2;ratioP2;P2;SDS_P1;SDS_P2;PMS_P1;PMS_P2;Temp;Humidity;BMP_temperature;BMP_pressure;BME280_temperature;BME280_humidity;BME280_pressure;Samples;Min_cycle;Max_cycle;Signal;HPM_P1;HPM_P2
2023/10/27 00:00:42;;;;;;;;;;;;;;;12.59;83.22;97683.53;1088701;54;1148;-81
2023/10/27 00:01:46;;;;;;;;;;;;;;;12.56;83.37;97683.94;1087502;47;1061;-80
2023/10/27 00:02:46;;;;;;;;;;;;;;;12.56;83.21;97682.09;1087387;47;1073;-80
2023/10/27 00:03:49;;;;;;;;;;;;;;;12.55;83.43;97680.47;1087159;54;1055;-80
2023/10/27 00:04:50;;;;;;;;;;;;;;;12.53;83.70;97685.22;1087192;47;1080;-79
2023/10/27 00:05:51;;;;;;;;;;;;;;;12.54;83.58;97683.34;1087149;54;1134;-79
2023/10/27 00:06:56;;;;;;;;;;;;;;;12.53;83.61;97682.53;1086792;47;1395;-80
2023/10/27 00:07:59;;;;;;;;;;;;;;;12.54;83.94;97686.03;1086985;47;1081;-79
2023/10/27 00:09:00;;;;;;;;;;;;;;;12.56;84.04;97683.94;1087014;47;1168;-80
2023/10/27 00:10:03;;;;;;;;;;;;;;;12.55;83.94;97691.19;1087244;47;1006;-77
2023/10/27 00:11:05;;;;;;;;;;;;;;;12.55;83.87;97688.50;1087560;54;1042;-80
2023/10/27 00:12:09;;;;;;;;;;;;;;;12.58;83.91;97681.88;1087301;47;1072;-80
2023/10/27 00:13:10;;;;;;;;;;;;;;;12.55;84.21;97679.63;1087443;47;1038;-80
2023/10/27 00:14:10;;;;;;;;;;;;;;;12.53;84.20;97674.50;1087848;54;1853;-81
2023/10/27 00:15:18;;;;;;;;;;;;;;;12.52;84.18;97685.41;1088416;54;1031;-81
2023/10/27 00:16:21;;;;;;;;;;;;;;;12.49;84.46;97694.69;1088251;47;1270;-80
2023/10/27 00:17:24;;;;;;;;;;;;;;;12.50;84.45;97688.31;1087735;47;1113;-81
2023/10/27 00:18:25;;;;;;;;;;;;;;;12.47;84.55;97691.41;1087849;54;1287;-80
2023/10/27 00:19:28;;;;;;;;;;;;;;;12.47;84.69;97691.41;1087788;54;1157;-82
2023/10/27 00:20:29;;;;;;;;;;;;;;;12.46;84.90;97692.47;1088063;47;1236;-81
2023/10/27 00:21:30;;;;;;;;;;;;;;;12.47;84.86;97691.41;1087997;47;1011;-78
2023/10/27 00:22:41;;;;;;;;;;;;;;;12.47;84.85;97683.38;1088059;47;1051;-81
2023/10/27 00:24:06;;;;;;;;;;;;;;;12.48;84.89;97693.06;1087736;47;1236;-82
2023/10/27 00:25:12;;;;;;;;;;;;;;;12.49;84.55;97683.97;1088160;54;1168;-79
2023/10/27 00:26:13;;;;;;;;;;;;;;;12.50;84.56;97688.31;1087966;47;1316;-80
2023/10/27 00:27:17;;;;;;;;;;;;;;;12.46;84.70;97684.44;1087890;47;1160;-80
2023/10/27 00:28:18;;;;;;;;;;;;;;;12.42;85.29;97684.00;1087730;47;1038;-80
2023/10/27 00:29:24;;;;;;;;;;;;;;;12.37;85.28;97689.22;1087685;47;1104;-80
2023/10/27 00:30:25;;;;;;;;;;;;;;;12.32;86.00;97679.13;1088013;54;1095;-81
2023/10/27 00:31:28;;;;;;;;;;;;;;;12.35;85.99;97683.22;1087886;47;1181;-80
2023/10/27 00:32:29;;;;;;;;;;;;;;;12.33;85.90;97675.41;1087985;54;1119;-78
2023/10/27 00:33:34;;;;;;;;;;;;;;;12.39;85.57;97680.94;1087872;47;1005;-78
2023/10/27 00:34:35;;;;;;;;;;;;;;;12.37;85.96;97688.41;1087973;54;1861;-81
2023/10/27 00:35:40;;;;;;;;;;;;;;;12.38;85.99;97674.78;1088072;54;1099;-79
2023/10/27 00:36:40;;;;;;;;;;;;;;;12.40;85.83;97679.91;1087911;47;1290;-80
2023/10/27 00:37:43;;;;;;;;;;;;;;;12.38;85.65;97669.41;1087311;54;1204;-80
2023/10/27 00:38:46;;;;;;;;;;;;;;;12.40;85.83;97675.41;1087808;54;1024;-82
2023/10/27 00:39:50;;;;;;;;;;;;;;;12.39;85.51;97668.38;1087691;54;1028;-80
2023/10/27 00:40:53;;;;;;;;;;;;;;;12.35;85.99;97672.53;1087768;54;1044;-79
2023/10/27 00:41:53;;;;;;;;;;;;;;;12.35;85.99;97669.84;1087854;47;1185;-81
2023/10/27 00:42:58;;;;;;;;;;;;;;;12.39;86.00;97670.22;1087823;54;1071;-80
2023/10/27 00:43:59;;;;;;;;;;;;;;;12.37;86.13;97675.81;1088103;47;1158;-81
2023/10/27 00:45:02;;;;;;;;;;;;;;;12.38;85.90;97676.63;1088028;47;1329;-81
2023/10/27 00:46:03;;;;;;;;;;;;;;;12.39;86.18;97675.59;1087912;54;1091;-81
2023/10/27 00:47:07;;;;;;;;;;;;;;;12.37;85.93;97673.13;1088114;47;1241;-80
2023/10/27 00:48:08;;;;;;;;;;;;;;;12.41;85.83;97670.84;1087982;54;1079;-81
2023/10/27 00:49:11;;;;;;;;;;;;;;;12.37;86.23;97672.31;1087797;47;1478;-79
2023/10/27 00:50:12;;;;;;;;;;;;;;;12.35;86.18;97672.53;1088145;47;1123;-80
2023/10/27 00:51:18;;;;;;;;;;;;;;;12.35;86.54;97671.72;1087904;47;1071;-80
2023/10/27 00:52:20;;;;;;;;;;;;;;;12.35;86.43;97675.19;1087879;54;1090;-79
2023/10/27 00:53:23;;;;;;;;;;;;;;;12.33;86.63;97675.41;1087974;47;1159;-80
2023/10/27 00:54:25;;;;;;;;;;;;;;;12.31;86.75;97682.84;1087885;47;1904;-79
2023/10/27 00:55:26;;;;;;;;;;;;;;;12.33;86.70;97686.13;1088076;54;1076;-82
2023/10/27 00:56:32;;;;;;;;;;;;;;;12.37;86.96;97675.00;1087316;47;1326;-80
2023/10/27 00:57:33;;;;;;;;;;;;;;;12.37;86.58;97675.81;1087850;54;1022;-80
2023/10/27 00:58:38;;;;;;;;;;;;;;;12.35;86.66;97677.88;1087682;54;1135;-78
2023/10/27 00:59:39;;;;;;;;;;;;;;;12.36;86.71;97679.53;1087411;47;1039;-80
2023/10/27 01:00:43;;;;;;;;;;;;;;;12.35;86.62;97674.38;1087778;54;1146;-80
2023/10/27 01:01:46;;;;;;;;;;;;;;;12.34;86.66;97670.88;1088497;54;1177;-81
2023/10/27 01:02:51;;;;;;;;;;;;;;;12.36;86.75;97676.84;1088407;47;886;-80
2023/10/27 01:03:52;;;;;;;;;;;;;;;12.42;86.36;97681.34;1088254;54;1086;-81
2023/10/27 01:04:56;;;;;;;;;;;;;;;12.39;86.40;97671.06;1088202;47;1539;-81
2023/10/27 01:05:56;;;;;;;;;;;;;;;12.39;86.82;97678.25;1087856;47;1070;-80
2023/10/27 01:06:59;;;;;;;;;;;;;;;12.41;86.54;97673.53;1087823;47;1255;-81
2023/10/27 01:08:00;;;;;;;;;;;;;;;12.43;86.74;97664.22;1088322;54;1018;-81
2023/10/27 01:09:04;;;;;;;;;;;;;;;12.46;86.11;97671.03;1088317;54;1124;-78
2023/10/27 01:10:05;;;;;;;;;;;;;;;12.46;86.34;97666.47;1088401;46;1141;-81
2023/10/27 01:11:12;;;;;;;;;;;;;;;12.48;85.92;97664.41;1088583;54;1114;-80
2023/10/27 01:12:18;;;;;;;;;;;;;;;12.46;86.09;97663.00;1088493;54;1198;-80
2023/10/27 01:13:21;;;;;;;;;;;;;;;12.44;86.42;97663.19;1088592;54;1034;-82
2023/10/27 01:14:27;;;;;;;;;;;;;;;12.51;86.17;97665.03;1088533;46;1059;-81
2023/10/27 01:15:30;;;;;;;;;;;;;;;12.55;85.74;97659.03;1088411;47;1150;-82
2023/10/27 01:16:31;;;;;;;;;;;;;;;12.53;85.97;97657.56;1088529;54;1344;-82
2023/10/27 01:17:34;;;;;;;;;;;;;;;12.48;86.07;97666.25;1088509;54;991;-80
2023/10/27 01:18:35;;;;;;;;;;;;;;;12.45;85.87;97661.34;1088388;47;999;-78
2023/10/27 01:19:41;;;;;;;;;;;;;;;12.45;86.36;97661.34;1088561;54;1122;-83
2023/10/27 01:20:42;;;;;;;;;;;;;;;12.50;85.99;97661.50;1088664;54;1109;-79
2023/10/27 01:21:45;;;;;;;;;;;;;;;12.54;85.99;97660.06;1088392;47;1068;-79
2023/10/27 01:22:51;;;;;;;;;;;;;;;12.57;85.65;97658.78;1088486;54;1089;-80
2023/10/27 01:23:55;;;;;;;;;;;;;;;12.59;85.65;97664.78;1088605;54;1153;-82
2023/10/27 01:24:56;;;;;;;;;;;;;;;12.55;85.70;97659.03;1088429;47;991;-82
2023/10/27 01:25:59;;;;;;;;;;;;;;;12.58;85.48;97663.94;1088455;46;1281;-80
2023/10/27 01:27:03;;;;;;;;;;;;;;;12.55;85.15;97655.50;1088441;54;1308;-82
2023/10/27 01:28:08;;;;;;;;;;;;;;;12.45;85.69;97656.00;1088258;54;1094;-79
2023/10/27 01:29:09;;;;;;;;;;;;;;;12.43;85.85;97658.06;1088410;47;1381;-80
2023/10/27 01:30:13;;;;;;;;;;;;;;;12.48;85.65;97650.19;1088486;47;1066;-79
2023/10/27 01:31:13;;;;;;;;;;;;;;;12.53;85.74;97642.34;1088626;54;1025;-78
2023/10/27 01:32:17;;;;;;;;;;;;;;;12.56;85.09;97647.28;1088822;54;975;-79
2023/10/27 01:33:17;;;;;;;;;;;;;;;12.56;85.06;97644.59;1088624;47;1546;-78
2023/10/27 01:34:21;;;;;;;;;;;;;;;12.54;85.32;97641.31;1088772;47;1053;-82
2023/10/27 01:35:21;;;;;;;;;;;;;;;12.53;85.26;97646.84;1088846;47;1848;-78
2023/10/27 01:38:34;;;;;;;;;;;;;;;12.51;85.50;97648.94;1088744;54;717;-79
2023/10/27 01:46:29;;;;;;;;;;;;;;;12.48;85.61;97644.81;1088745;54;1343;-82
2023/10/27 01:47:30;;;;;;;;;;;;;;;12.51;85.59;97649.75;1088687;54;1024;-80
2023/10/27 01:48:36;;;;;;;;;;;;;;;12.47;85.80;97637.81;1088509;46;937;-79
2023/10/27 01:49:36;;;;;;;;;;;;;;;12.40;86.38;97647.75;1088707;54;891;-79
2023/10/27 01:50:37;;;;;;;;;;;;;;;12.44;86.32;97631.03;1088408;54;995;-79
2023/10/27 01:51:40;;;;;;;;;;;;;;;12.50;86.12;97632.03;1088401;47;995;-79
2023/10/27 01:52:41;;;;;;;;;;;;;;;12.52;85.39;97632.66;1088537;54;1009;-80
2023/10/27 01:53:47;;;;;;;;;;;;;;;12.48;85.44;97640.31;1088477;47;1011;-82
2023/10/27 01:54:47;;;;;;;;;;;;;;;12.50;85.56;97636.59;1088728;54;1852;-83
2023/10/27 01:55:51;;;;;;;;;;;;;;;12.51;85.58;97632.88;1088452;54;1097;-81
2023/10/27 01:56:52;;;;;;;;;;;;;;;12.50;85.61;97633.91;1088367;47;1253;-82
2023/10/27 01:57:55;;;;;;;;;;;;;;;12.45;85.82;97623.84;1088392;47;1002;-82
2023/10/27 01:58:56;;;;;;;;;;;;;;;12.44;86.22;97627.56;1088541;54;940;-81
2023/10/27 01:59:59;;;;;;;;;;;;;;;12.49;85.91;97625.03;1088785;54;909;-81
2023/10/27 02:01:00;;;;;;;;;;;;;;;12.45;86.10;97634.56;1088466;47;1058;-82
2023/10/27 02:02:06;;;;;;;;;;;;;;;12.43;86.13;97625.91;1088419;54;958;-81
2023/10/27 02:03:08;;;;;;;;;;;;;;;12.46;85.93;97636.19;1088404;47;1002;-81
2023/10/27 02:04:11;;;;;;;;;;;;;;;12.42;86.28;97637.66;1088439;54;915;-81
2023/10/27 02:05:12;;;;;;;;;;;;;;;12.43;86.44;97631.25;1088375;54;984;-80
2023/10/27 02:06:15;;;;;;;;;;;;;;;12.39;86.52;97643.44;1088446;54;1291;-81
2023/10/27 02:07:16;;;;;;;;;;;;;;;12.41;86.51;97649.41;1088827;54;938;-80
2023/10/27 02:08:20;;;;;;;;;;;;;;;12.40;86.38;97639.72;1088795;54;925;-81
2023/10/27 02:09:23;;;;;;;;;;;;;;;12.42;86.48;97635.78;1088443;47;1014;-81
2023/10/27 02:10:26;;;;;;;;;;;;;;;12.39;86.64;97640.75;1088510;47;1074;-81
2023/10/27 02:13:41;;;;;;;;;;;;;;;12.39;86.74;97628.19;1088532;54;863;-82
2023/10/27 02:14:45;;;;;;;;;;;;;;;12.41;86.46;97619.94;1088485;47;927;-80
2023/10/27 02:15:48;;;;;;;;;;;;;;;12.36;86.67;97625.94;1088752;54;947;-81
2023/10/27 02:16:49;;;;;;;;;;;;;;;12.28;87.12;97623.53;1088448;46;1342;-81
2023/10/27 02:17:52;;;;;;;;;;;;;;;12.28;87.12;97621.66;1088436;54;953;-82
2023/10/27 02:18:53;;;;;;;;;;;;;;;12.26;86.97;97625.59;1088438;54;1035;-81
2023/10/27 02:20:11;;;;;;;;;;;;;;;12.24;87.53;97624.97;1088151;47;1032;-80
2023/10/27 02:21:12;;;;;;;;;;;;;;;12.24;87.56;97617.78;1088286;47;874;-80
2023/10/27 02:32:41;;;;;;;;;;;;;;;12.28;87.49;97628.88;1088752;54;669;-78
2023/10/27 02:33:41;;;;;;;;;;;;;;;12.27;87.50;97622.72;1088730;54;979;-77
2023/10/27 02:34:45;;;;;;;;;;;;;;;12.26;87.25;97620.22;1088382;54;992;-78
2023/10/27 02:35:45;;;;;;;;;;;;;;;12.25;87.47;97619.41;1088514;54;1849;-82
2023/10/27 02:36:49;;;;;;;;;;;;;;;12.22;87.80;97622.53;1088761;54;1284;-81
2023/10/27 02:37:49;;;;;;;;;;;;;;;12.23;87.88;97629.53;1088498;47;1070;-80
2023/10/27 02:38:53;;;;;;;;;;;;;;;12.23;87.72;97623.34;1088459;47;950;-82
2023/10/27 02:51:45;;;;;;;;;;;;;;;12.08;88.71;97629.00;1088102;54;1150;-81
2023/10/27 02:52:46;;;;;;;;;;;;;;;12.12;88.42;97630.19;1088363;54;940;-80
2023/10/27 02:53:50;;;;;;;;;;;;;;;12.12;88.44;97636.38;1088350;54;1117;-81
2023/10/27 02:54:51;;;;;;;;;;;;;;;12.18;88.23;97634.72;1088339;47;975;-82
2023/10/27 02:55:54;;;;;;;;;;;;;;;12.22;88.05;97633.22;1088344;54;1851;-81
2023/10/27 02:56:55;;;;;;;;;;;;;;;12.23;87.68;97632.19;1088325;47;1259;-79
2023/10/27 02:58:10;;;;;;;;;;;;;;;12.27;87.60;97630.75;1088764;46;967;-79
2023/10/27 02:59:10;;;;;;;;;;;;;;;12.28;87.10;97624.31;1087910;47;1019;-83
2023/10/27 03:00:14;;;;;;;;;;;;;;;12.30;86.71;97632.97;1088111;47;1173;-79
2023/10/27 03:01:15;;;;;;;;;;;;;;;12.31;86.64;97634.63;1088457;54;917;-79
2023/10/27 03:02:18;;;;;;;;;;;;;;;12.31;86.85;97618.56;1088384;54;984;-79
2023/10/27 03:03:20;;;;;;;;;;;;;;;12.33;86.66;97621.84;1088419;54;954;-79
2023/10/27 03:04:21;;;;;;;;;;;;;;;12.35;86.49;97615.44;1088335;47;930;-79
2023/10/27 03:05:24;;;;;;;;;;;;;;;12.37;86.04;97611.50;1088407;54;944;-77
2023/10/27 03:06:27;;;;;;;;;;;;;;;12.38;85.94;97615.00;1088574;47;1271;-78
2023/10/27 03:07:32;;;;;;;;;;;;;;;12.40;85.61;97615.63;1088607;54;987;-79
2023/10/27 03:08:34;;;;;;;;;;;;;;;12.42;85.69;97618.91;1088673;51;1004;-76
2023/10/27 03:09:34;;;;;;;;;;;;;;;12.28;85.76;97613.63;1088580;46;967;-79
2023/10/27 03:10:37;;;;;;;;;;;;;;;12.31;85.86;97612.38;1088811;54;1127;-79
2023/10/27 03:11:38;;;;;;;;;;;;;;;12.37;85.56;97616.06;1088647;54;914;-79
2023/10/27 03:12:41;;;;;;;;;;;;;;;12.36;85.34;97615.22;1088746;54;1042;-76
2023/10/27 03:13:43;;;;;;;;;;;;;;;12.39;85.45;97619.31;1088663;47;1097;-77
2023/10/27 03:14:48;;;;;;;;;;;;;;;12.42;85.29;97618.91;1088675;54;1002;-80
2023/10/27 03:15:49;;;;;;;;;;;;;;;12.39;85.53;97619.31;1088670;54;1843;-78
2023/10/27 03:16:52;;;;;;;;;;;;;;;12.37;85.08;97616.88;1088699;54;1327;-77
2023/10/27 03:17:53;;;;;;;;;;;;;;;12.41;85.17;97617.25;1088701;54;996;-79
2023/10/27 03:18:56;;;;;;;;;;;;;;;12.42;84.95;97610.88;1088518;54;1082;-79
2023/10/27 03:20:04;;;;;;;;;;;;;;;12.41;84.83;97604.69;1088624;47;891;-78
2023/10/27 03:21:08;;;;;;;;;;;;;;;12.45;84.84;97605.09;1088622;47;975;-76
2023/10/27 03:22:09;;;;;;;;;;;;;;;12.47;84.79;97605.66;1088655;47;995;-79
2023/10/27 03:23:15;;;;;;;;;;;;;;;12.46;84.60;97610.22;1088599;47;982;-78
2023/10/27 03:24:16;;;;;;;;;;;;;;;12.48;84.63;97607.31;1088652;54;969;-78
2023/10/27 03:25:19;;;;;;;;;;;;;;;12.47;84.51;97600.31;1088624;54;1129;-78
2023/10/27 03:26:20;;;;;;;;;;;;;;;12.47;83.93;97602.97;1088569;54;1376;-78
2023/10/27 03:27:24;;;;;;;;;;;;;;;12.48;84.07;97604.63;1088575;47;998;-81
2023/10/27 03:28:25;;;;;;;;;;;;;;;12.47;84.16;97608.34;1088655;54;918;-78
2023/10/27 03:29:27;;;;;;;;;;;;;;;12.48;83.83;97607.31;1088678;54;1032;-79
2023/10/27 03:30:30;;;;;;;;;;;;;;;12.48;84.20;97610.00;1088637;54;1173;-78
2023/10/27 03:31:37;;;;;;;;;;;;;;;12.45;84.28;97605.88;1088662;54;1029;-79
2023/10/27 03:32:49;;;;;;;;;;;;;;;12.46;84.29;97601.38;1088605;54;1090;-79
2023/10/27 03:34:01;;;;;;;;;;;;;;;12.45;84.22;97602.41;1088993;47;1082;-81
2023/10/27 03:35:05;;;;;;;;;;;;;;;12.45;83.67;97607.75;1088632;46;1010;-83
2023/10/27 03:37:22;;;;;;;;;;;;;;;12.45;84.21;97607.75;1088427;54;1128;-79
2023/10/27 03:38:25;;;;;;;;;;;;;;;12.39;84.04;97609.44;1088655;54;1063;-81
2023/10/27 03:39:26;;;;;;;;;;;;;;;12.41;83.96;97607.38;1088796;54;998;-81
2023/10/27 03:40:35;;;;;;;;;;;;;;;12.39;83.47;97608.59;1088735;54;1041;-81
2023/10/27 03:41:36;;;;;;;;;;;;;;;12.32;84.01;97609.47;1088381;54;1030;-81
2023/10/27 03:42:40;;;;;;;;;;;;;;;12.35;83.71;97610.09;1088476;54;1217;-81
2023/10/27 03:43:41;;;;;;;;;;;;;;;12.34;83.78;97606.56;1088898;54;1483;-81
2023/10/27 03:44:44;;;;;;;;;;;;;;;12.35;84.12;97607.41;1089088;46;1022;-80
2023/10/27 03:45:44;;;;;;;;;;;;;;;12.36;83.64;97609.06;1088864;54;1264;-85
2023/10/27 03:50:03;;;;;;;;;;;;;;;12.25;83.53;97616.75;1089082;47;839;-80
2023/10/27 03:51:05;;;;;;;;;;;;;;;12.26;83.74;97604.16;1089107;54;1078;-80
2023/10/27 03:52:09;;;;;;;;;;;;;;;12.25;83.65;97603.34;1089035;54;1117;-82
2023/10/27 03:53:11;;;;;;;;;;;;;;;12.21;83.24;97606.66;1088403;47;963;-80
2023/10/27 03:54:17;;;;;;;;;;;;;;;12.20;83.70;97605.84;1088459;54;939;-78
2023/10/27 03:55:18;;;;;;;;;;;;;;;12.24;83.43;97608.91;1088151;54;1863;-82
2023/10/27 03:56:19;;;;;;;;;;;;;;;12.22;83.51;97598.41;1087949;47;1262;-81
2023/10/27 03:57:22;;;;;;;;;;;;;;;12.19;83.58;97601.50;1088177;54;1573;-80
2023/10/27 03:58:23;;;;;;;;;;;;;;;12.23;83.78;97596.56;1088194;47;1209;-82
2023/10/27 03:59:23;;;;;;;;;;;;;;;12.27;83.46;97605.81;1088541;54;1148;-78
2023/10/27 04:00:27;;;;;;;;;;;;;;;12.26;83.25;97604.16;1088321;54;876;-80
2023/10/27 04:01:28;;;;;;;;;;;;;;;12.27;83.48;97595.94;1088221;54;1102;-80
2023/10/27 05:39:58;;;;;;;;;;;;;;;11.46;84.16;97616.84;1086931;54;1967;-83
2023/10/27 05:41:03;;;;;;;;;;;;;;;11.50;84.09;97612.69;1088573;54;1154;-80
2023/10/27 05:42:23;;;;;;;;;;;;;;;11.47;84.21;97617.66;1088563;47;1105;-80
2023/10/27 05:43:23;;;;;;;;;;;;;;;11.48;84.58;97613.94;1088634;46;1058;-82
2023/10/27 05:44:27;;;;;;;;;;;;;;;11.45;84.37;97615.19;1088024;54;1156;-79
2023/10/27 05:45:27;;;;;;;;;;;;;;;11.37;84.93;97618.91;1088083;54;1053;-80
2023/10/27 05:46:31;;;;;;;;;;;;;;;11.39;85.00;97624.03;1087637;47;1377;-79
2023/10/27 05:47:31;;;;;;;;;;;;;;;11.41;84.93;97618.50;1088293;47;1169;-82
2023/10/27 05:48:34;;;;;;;;;;;;;;;11.44;84.92;97624.25;1088466;54;993;-78
2023/10/27 05:49:36;;;;;;;;;;;;;;;11.46;84.60;97621.34;1087893;46;1074;-80
2023/10/27 05:50:39;;;;;;;;;;;;;;;11.45;84.58;97625.06;1087195;54;1153;-81
2023/10/27 05:51:40;;;;;;;;;;;;;;;11.48;84.36;97616.63;1087544;47;1134;-79
2023/10/27 05:52:45;;;;;;;;;;;;;;;11.41;84.59;97621.97;1087260;47;1082;-80
2023/10/27 05:53:46;;;;;;;;;;;;;;;11.43;84.89;97621.78;1086989;54;1128;-81
2023/10/27 05:54:49;;;;;;;;;;;;;;;11.45;84.54;97623.22;1087378;47;1093;-79
2023/10/27 05:55:50;;;;;;;;;;;;;;;11.44;84.80;97636.78;1087926;54;986;-80
2023/10/27 05:56:56;;;;;;;;;;;;;;;11.43;85.23;97629.81;1087899;54;1862;-78
2023/10/27 05:57:56;;;;;;;;;;;;;;;11.45;84.85;97646.44;1088150;54;1107;-80
2023/10/27 05:59:00;;;;;;;;;;;;;;;11.43;85.08;97643.19;1088001;47;977;-79
2023/10/27 06:00:00;;;;;;;;;;;;;;;11.39;85.06;97642.75;1088126;54;903;-79
2023/10/27 06:01:05;;;;;;;;;;;;;;;11.39;85.52;97648.09;1087031;54;1018;-79
2023/10/27 06:02:06;;;;;;;;;;;;;;;11.45;84.87;97651.81;1086522;54;1122;-79
2023/10/27 06:03:09;;;;;;;;;;;;;;;11.48;84.73;97640.69;1087941;54;1158;-78
2023/10/27 06:04:10;;;;;;;;;;;;;;;11.50;84.90;97641.31;1088439;54;1154;-76
2023/10/27 06:05:13;;;;;;;;;;;;;;;11.52;84.80;97645.41;1088368;47;990;-76
2023/10/27 06:06:14;;;;;;;;;;;;;;;11.53;84.57;97647.06;1087272;47;1342;-79
2023/10/27 06:07:19;;;;;;;;;;;;;;;11.53;84.78;97641.72;1087068;54;1163;-81
2023/10/27 06:08:20;;;;;;;;;;;;;;;11.54;85.03;97647.88;1087721;47;1078;-78
2023/10/27 06:09:24;;;;;;;;;;;;;;;11.55;85.00;97644.16;1088422;54;1119;-76
2023/10/27 06:10:25;;;;;;;;;;;;;;;11.56;85.08;97651.16;1088399;54;945;-77
2023/10/27 06:11:28;;;;;;;;;;;;;;;11.55;84.78;97646.84;1088380;54;979;-80
2023/10/27 06:12:31;;;;;;;;;;;;;;;11.57;85.08;97650.13;1088327;47;948;-79
2023/10/27 06:13:34;;;;;;;;;;;;;;;11.53;85.42;97654.25;1088340;47;953;-79
2023/10/27 06:14:35;;;;;;;;;;;;;;;11.50;85.77;97654.69;1087518;47;1093;-77
2023/10/27 06:15:39;;;;;;;;;;;;;;;11.50;85.66;97655.50;1087208;54;1106;-79
2023/10/27 06:16:39;;;;;;;;;;;;;;;11.44;86.04;97666.22;1087706;54;1850;-79
2023/10/27 06:17:43;;;;;;;;;;;;;;;11.36;86.43;97664.59;1087392;47;1052;-80
2023/10/27 06:18:43;;;;;;;;;;;;;;;11.43;86.95;97664.59;1087030;54;1083;-78
2023/10/27 06:19:46;;;;;;;;;;;;;;;11.41;86.65;97659.44;1087053;54;1050;-78
2023/10/27 06:20:47;;;;;;;;;;;;;;;11.39;87.15;97659.66;1088464;54;1166;-83
2023/10/27 06:21:50;;;;;;;;;;;;;;;11.32;87.61;97664.19;1088369;47;1056;-77
2023/10/27 06:22:51;;;;;;;;;;;;;;;11.31;87.36;97664.38;1088398;54;1012;-76
2023/10/27 06:23:54;;;;;;;;;;;;;;;11.30;87.50;97668.91;1088279;47;966;-76
2023/10/27 06:24:55;;;;;;;;;;;;;;;11.33;87.73;97667.69;1088310;47;1007;-77
2023/10/27 06:25:58;;;;;;;;;;;;;;;11.32;88.18;97674.88;1088115;47;926;-81
2023/10/27 06:26:59;;;;;;;;;;;;;;;11.18;89.02;97676.75;1087857;47;1267;-81
2023/10/27 06:28:05;;;;;;;;;;;;;;;11.15;89.40;97676.31;1088163;54;1019;-81
2023/10/27 06:29:09;;;;;;;;;;;;;;;11.05;90.87;97674.88;1087931;46;1162;-79
2023/10/27 06:30:11;;;;;;;;;;;;;;;11.15;90.82;97679.00;1088221;47;1055;-81
2023/10/27 06:31:14;;;;;;;;;;;;;;;11.16;89.98;97676.13;1088583;54;1187;-78
2023/10/27 06:32:26;;;;;;;;;;;;;;;11.04;91.40;97678.59;1088258;54;1120;-82
2023/10/27 06:33:36;;;;;;;;;;;;;;;11.09;91.43;97675.31;1087600;54;1115;-80
2023/10/27 06:34:36;;;;;;;;;;;;;;;10.99;92.08;97677.56;1088189;54;964;-76
2023/10/27 06:35:39;;;;;;;;;;;;;;;10.99;92.57;97673.03;1087684;54;1020;-80
2023/10/27 06:36:40;;;;;;;;;;;;;;;11.02;92.19;97672.63;1088063;54;1861;-78
2023/10/27 06:37:46;;;;;;;;;;;;;;;10.98;92.77;97674.06;1088359;54;991;-79
2023/10/27 06:38:49;;;;;;;;;;;;;;;11.01;92.10;97679.00;1088482;54;1059;-83
2023/10/27 06:39:50;;;;;;;;;;;;;;;11.04;92.28;97677.78;1088253;54;944;-82
2023/10/27 06:40:53;;;;;;;;;;;;;;;11.03;92.60;97678.78;1087991;47;1142;-82
2023/10/27 06:41:56;;;;;;;;;;;;;;;11.01;91.90;97673.66;1087237;54;1230;-81
2023/10/27 06:43:00;;;;;;;;;;;;;;;11.03;91.98;97671.63;1088202;47;960;-78
2023/10/27 06:44:04;;;;;;;;;;;;;;;11.06;92.12;97675.72;1088314;54;1107;-80
2023/10/27 06:45:08;;;;;;;;;;;;;;;11.10;92.13;97681.47;1088436;54;977;-81
2023/10/27 06:46:09;;;;;;;;;;;;;;;11.07;91.89;97682.72;1088372;54;963;-80
2023/10/27 06:47:19;;;;;;;;;;;;;;;11.06;91.55;97673.03;1088252;47;1281;-80
2023/10/27 06:48:22;;;;;;;;;;;;;;;11.04;91.79;97678.59;1088307;47;954;-81
2023/10/27 06:49:25;;;;;;;;;;;;;;;11.03;91.76;97676.13;1088304;47;1024;-80
2023/10/27 06:50:28;;;;;;;;;;;;;;;11.06;91.63;97681.88;1088597;54;992;-84
2023/10/27 06:51:33;;;;;;;;;;;;;;;11.00;91.55;97680.03;1088712;54;985;-81
2023/10/27 06:52:43;;;;;;;;;;;;;;;11.01;92.36;97688.88;1088536;47;1035;-81
2023/10/27 06:53:46;;;;;;;;;;;;;;;11.01;91.74;97689.69;1088550;54;988;-83
2023/10/27 06:54:47;;;;;;;;;;;;;;;11.01;91.87;97680.84;1087817;54;1404;-78
2023/10/27 06:55:50;;;;;;;;;;;;;;;10.92;92.55;97686.41;1085605;47;988;-79
2023/10/27 06:56:54;;;;;;;;;;;;;;;10.97;92.63;97690.31;1087795;46;1850;-82
2023/10/27 06:57:57;;;;;;;;;;;;;;;10.99;92.35;97681.06;1087522;47;1051;-80
2023/10/27 06:59:06;;;;;;;;;;;;;;;11.00;92.21;97688.06;1088387;54;1505;-80
2023/10/27 07:00:11;;;;;;;;;;;;;;;11.04;91.87;97683.97;1088354;54;1167;-79
2023/10/27 07:01:12;;;;;;;;;;;;;;;11.05;91.72;97680.22;1086778;54;1051;-79
2023/10/27 07:02:12;;;;;;;;;;;;;;;11.06;91.22;97679.19;1087802;54;1161;-80
2023/10/27 07:03:17;;;;;;;;;;;;;;;11.05;91.33;97682.91;1088076;54;1034;-80
2023/10/27 07:04:17;;;;;;;;;;;;;;;10.99;91.59;97686.41;1087147;54;1182;-82
2023/10/27 07:05:21;;;;;;;;;;;;;;;11.01;91.30;97679.00;1086490;46;1139;-81
2023/10/27 07:06:22;;;;;;;;;;;;;;;11.05;91.55;97690.91;1088063;47;1300;-79
2023/10/27 07:07:25;;;;;;;;;;;;;;;11.07;91.41;97688.88;1088233;54;940;-78
2023/10/27 07:08:25;;;;;;;;;;;;;;;11.08;91.65;97687.03;1088251;54;963;-77
2023/10/27 07:09:29;;;;;;;;;;;;;;;11.10;90.97;97684.16;1088390;54;1126;-78
2023/10/27 07:10:30;;;;;;;;;;;;;;;11.13;91.30;97681.06;1088275;54;1213;-77
2023/10/27 07:11:33;;;;;;;;;;;;;;;11.18;91.29;97682.09;1087878;47;991;-77
2023/10/27 07:12:34;;;;;;;;;;;;;;;11.21;91.19;97681.66;1088310;54;1018;-81
2023/10/27 07:13:37;;;;;;;;;;;;;;;11.10;90.98;97684.97;1087349;46;1127;-80
2023/10/27 07:14:40;;;;;;;;;;;;;;;11.14;91.05;97682.72;1087627;46;1150;-82
2023/10/27 07:15:44;;;;;;;;;;;;;;;11.04;91.61;97683.97;1087867;54;1054;-80
2023/10/27 07:16:44;;;;;;;;;;;;;;;11.02;91.57;97680.66;1087744;47;1854;-81
2023/10/27 07:17:48;;;;;;;;;;;;;;;11.07;91.46;97688.88;1087860;47;1046;-80
2023/10/27 07:19:59;;;;;;;;;;;;;;;11.14;91.52;97688.06;1088230;54;1128;-79
2023/10/27 07:21:14;;;;;;;;;;;;;;;11.19;91.77;97685.59;1088865;47;984;-82
2023/10/27 07:22:19;;;;;;;;;;;;;;;11.12;91.53;97688.25;1088868;54;1094;-80
2023/10/27 07:23:50;;;;;;;;;;;;;;;11.13;91.91;97686.41;1088843;47;962;-82
2023/10/27 07:24:56;;;;;;;;;;;;;;;11.11;91.95;97694.63;1088900;54;1051;-83
2023/10/27 07:25:56;;;;;;;;;;;;;;;11.12;91.71;97692.78;1088926;54;935;-82
2023/10/27 07:27:05;;;;;;;;;;;;;;;11.16;91.39;97681.47;1088731;47;1167;-81
2023/10/27 07:28:14;;;;;;;;;;;;;;;11.13;90.91;97683.75;1088721;54;1001;-80
2023/10/27 07:29:18;;;;;;;;;;;;;;;11.14;91.07;97688.06;1088588;47;819;-81
2023/10/27 07:30:21;;;;;;;;;;;;;;;11.16;91.00;97686.81;1088653;54;980;-82
2023/10/27 07:31:30;;;;;;;;;;;;;;;11.19;90.40;97685.59;1088901;54;1106;-84
2023/10/27 07:32:30;;;;;;;;;;;;;;;11.28;90.03;97686.22;1088736;47;885;-82
2023/10/27 07:33:51;;;;;;;;;;;;;;;11.28;89.98;97689.69;1088472;47;973;-80
2023/10/27 07:34:56;;;;;;;;;;;;;;;11.27;89.83;97685.38;1088691;47;905;-82
2023/10/27 07:36:02;;;;;;;;;;;;;;;11.24;89.42;97683.13;1088682;54;993;-81
2023/10/27 07:37:04;;;;;;;;;;;;;;;11.18;89.30;97681.25;1088436;47;1842;-82
2023/10/27 07:38:07;;;;;;;;;;;;;;;11.23;88.58;97687.63;1088338;47;941;-82
2023/10/27 07:39:09;;;;;;;;;;;;;;;11.30;88.61;97693.00;1088177;47;1132;-79
2023/10/27 07:40:13;;;;;;;;;;;;;;;11.37;88.28;97696.47;1088341;47;876;-80
2023/10/27 07:41:15;;;;;;;;;;;;;;;11.35;88.16;97695.84;1088089;47;1133;-78
2023/10/27 07:42:20;;;;;;;;;;;;;;;11.37;88.24;97699.16;1088165;47;947;-78
2023/10/27 07:43:22;;;;;;;;;;;;;;;11.38;87.72;97689.28;1088177;54;927;-79
2023/10/27 07:44:25;;;;;;;;;;;;;;;11.45;87.38;97694.59;1088360;54;992;-78
2023/10/27 07:45:28;;;;;;;;;;;;;;;11.42;87.36;97692.38;1088115;54;982;-78
2023/10/27 07:46:32;;;;;;;;;;;;;;;11.49;86.98;97699.34;1088273;54;1332;-79
2023/10/27 07:47:32;;;;;;;;;;;;;;;11.51;86.83;97699.16;1088186;54;1140;-80
2023/10/27 07:48:36;;;;;;;;;;;;;;;11.52;86.79;97701.59;1088287;47;975;-79
2023/10/27 07:49:37;;;;;;;;;;;;;;;11.48;87.01;97697.69;1088485;54;960;-80
2023/10/27 07:50:40;;;;;;;;;;;;;;;11.58;86.63;97696.44;1088367;47;1102;-81
2023/10/27 07:51:41;;;;;;;;;;;;;;;11.53;86.39;97705.09;1088273;46;1429;-81